sensor_id;sensor_type;location;lat;lon;timestamp;P1;durP1;ratioP1;P2;durP2;ratioP2
7529;SDS011;3806;52.270;10.544;2023-11-18T00:02:18;1.42;;;1.25;;
7529;SDS011;3806;52.270;10.544;2023-11-18T00:04:44;1.88;;;1.38;;
7529;SDS011;3806;52.270;10.544;2023-11-18T00:07:10;2.88;;;1.50;;
7529;SDS011;3806;52.270;10.544;2023-11-18T00:09:35;3.13;;;1.70;;
7529;SDS011;3806;52.270;10.544;2023-11-18T00:12:01;2.42;;;1.45;;
7529;SDS011;3806;52.270;10.544;2023-11-18T00:14:29;4.00;;;1.90;;
7529;SDS011;3806;52.270;10.544;2023-11-18T00:16:54;1.63;;;1.33;;
7529;SDS011;3806;52.270;10.544;2023-11-18T00:19:20;3.25;;;1.85;;
7529;SDS011;3806;52.270;10.544;2023-11-18T00:21:45;5.47;;;2.03;;
7529;SDS011;3806;52.270;10.544;2023-11-18T00:24:11;3.60;;;1.80;;
7529;SDS011;3806;52.270;10.544;2023-11-18T00:26:39;1.88;;;1.40;;
7529;SDS011;3806;52.270;10.544;2023-11-18T00:29:04;2.85;;;1.80;;
7529;SDS011;3806;52.270;10.544;2023-11-18T00:31:30;2.50;;;1.83;;
7529;SDS011;3806;52.270;10.544;2023-11-18T00:33:55;2.20;;;1.77;;
7529;SDS011;3806;52.270;10.544;2023-11-18T00:36:21;4.25;;;2.08;;
7529;SDS011;3806;52.270;10.544;2023-11-18T00:38:46;3.17;;;1.88;;
7529;SDS011;3806;52.270;10.544;2023-11-18T00:41:12;2.92;;;1.95;;
7529;SDS011;3806;52.270;10.544;2023-11-18T00:43:37;3.22;;;2.03;;
7529;SDS011;3806;52.270;10.544;2023-11-18T00:46:03;4.00;;;2.03;;
7529;SDS011;3806;52.270;10.544;2023-11-18T00:48:30;2.70;;;2.05;;
7529;SDS011;3806;52.270;10.544;2023-11-18T00:50:55;4.68;;;2.10;;
7529;SDS011;3806;52.270;10.544;2023-11-18T00:53:21;4.05;;;2.58;;
7529;SDS011;3806;52.270;10.544;2023-11-18T00:55:47;4.15;;;2.38;;
7529;SDS011;3806;52.270;10.544;2023-11-18T00:58:13;3.78;;;2.28;;
7529;SDS011;3806;52.270;10.544;2023-11-18T01:00:38;2.15;;;1.95;;
7529;SDS011;3806;52.270;10.544;2023-11-18T01:03:04;3.60;;;2.05;;
7529;SDS011;3806;52.270;10.544;2023-11-18T01:05:29;3.53;;;1.75;;
7529;SDS011;3806;52.270;10.544;2023-11-18T01:07:56;2.47;;;2.00;;
7529;SDS011;3806;52.270;10.544;2023-11-18T01:10:22;4.13;;;2.67;;
7529;SDS011;3806;52.270;10.544;2023-11-18T01:12:47;2.97;;;2.22;;
7529;SDS011;3806;52.270;10.544;2023-11-18T01:15:13;3.47;;;2.20;;
7529;SDS011;3806;52.270;10.544;2023-11-18T01:17:39;4.10;;;2.53;;
7529;SDS011;3806;52.270;10.544;2023-11-18T01:20:05;3.08;;;2.00;;
7529;SDS011;3806;52.270;10.544;2023-11-18T01:22:35;2.95;;;2.15;;
7529;SDS011;3806;52.270;10.544;2023-11-18T01:25:03;3.58;;;2.20;;
7529;SDS011;3806;52.270;10.544;2023-11-18T01:27:29;3.10;;;2.17;;
7529;SDS011;3806;52.270;10.544;2023-11-18T01:29:55;3.95;;;2.40;;
7529;SDS011;3806;52.270;10.544;2023-11-18T01:32:20;4.07;;;2.47;;
7529;SDS011;3806;52.270;10.544;2023-11-18T01:34:46;4.75;;;2.45;;
7529;SDS011;3806;52.270;10.544;2023-11-18T01:37:15;4.30;;;2.65;;
7529;SDS011;3806;52.270;10.544;2023-11-18T01:39:41;4.47;;;2.75;;
7529;SDS011;3806;52.270;10.544;2023-11-18T01:42:07;4.03;;;2.75;;
7529;SDS011;3806;52.270;10.544;2023-11-18T01:44:32;6.15;;;2.60;;
7529;SDS011;3806;52.270;10.544;2023-11-18T01:47:00;5.43;;;2.60;;
7529;SDS011;3806;52.270;10.544;2023-11-18T01:49:30;3.95;;;2.80;;
7529;SDS011;3806;52.270;10.544;2023-11-18T01:51:57;3.92;;;2.42;;
7529;SDS011;3806;52.270;10.544;2023-11-18T01:54:26;3.78;;;2.60;;
7529;SDS011;3806;52.270;10.544;2023-11-18T01:56:52;4.47;;;2.47;;
7529;SDS011;3806;52.270;10.544;2023-11-18T01:59:18;4.95;;;2.80;;
7529;SDS011;3806;52.270;10.544;2023-11-18T02:01:47;3.97;;;2.60;;
7529;SDS011;3806;52.270;10.544;2023-11-18T02:04:14;4.68;;;2.60;;
7529;SDS011;3806;52.270;10.544;2023-11-18T02:06:41;6.00;;;3.03;;
7529;SDS011;3806;52.270;10.544;2023-11-18T02:09:07;6.03;;;3.25;;
7529;SDS011;3806;52.270;10.544;2023-11-18T02:11:37;5.38;;;2.97;;
7529;SDS011;3806;52.270;10.544;2023-11-18T02:14:08;6.57;;;3.30;;
7529;SDS011;3806;52.270;10.544;2023-11-18T02:16:41;6.43;;;3.10;;
7529;SDS011;3806;52.270;10.544;2023-11-18T02:19:09;7.50;;;2.75;;
7529;SDS011;3806;52.270;10.544;2023-11-18T02:21:45;5.88;;;2.75;;
7529;SDS011;3806;52.270;10.544;2023-11-18T02:24:24;5.75;;;2.47;;
7529;SDS011;3806;52.270;10.544;2023-11-18T02:26:56;5.05;;;3.00;;
7529;SDS011;3806;52.270;10.544;2023-11-18T02:29:23;5.07;;;2.78;;
7529;SDS011;3806;52.270;10.544;2023-11-18T02:31:51;4.15;;;2.17;;
7529;SDS011;3806;52.270;10.544;2023-11-18T02:34:22;4.70;;;2.80;;
7529;SDS011;3806;52.270;10.544;2023-11-18T02:36:53;3.78;;;3.00;;
7529;SDS011;3806;52.270;10.544;2023-11-18T02:39:43;4.43;;;2.75;;
7529;SDS011;3806;52.270;10.544;2023-11-18T02:42:10;4.55;;;2.83;;
7529;SDS011;3806;52.270;10.544;2023-11-18T02:44:37;4.63;;;2.70;;
7529;SDS011;3806;52.270;10.544;2023-11-18T02:47:04;3.72;;;2.22;;
7529;SDS011;3806;52.270;10.544;2023-11-18T02:49:30;6.47;;;2.50;;
7529;SDS011;3806;52.270;10.544;2023-11-18T02:51:57;7.63;;;2.40;;
7529;SDS011;3806;52.270;10.544;2023-11-18T02:54:22;4.35;;;2.70;;
7529;SDS011;3806;52.270;10.544;2023-11-18T02:56:48;3.55;;;2.22;;
7529;SDS011;3806;52.270;10.544;2023-11-18T02:59:15;5.07;;;2.83;;
7529;SDS011;3806;52.270;10.544;2023-11-18T03:01:43;6.05;;;2.67;;
7529;SDS011;3806;52.270;10.544;2023-11-18T03:04:09;5.03;;;2.60;;
7529;SDS011;3806;52.270;10.544;2023-11-18T03:06:35;4.47;;;3.00;;
7529;SDS011;3806;52.270;10.544;2023-11-18T03:09:01;4.28;;;2.95;;
7529;SDS011;3806;52.270;10.544;2023-11-18T03:11:32;5.50;;;3.83;;
7529;SDS011;3806;52.270;10.544;2023-11-18T03:13:58;5.32;;;3.05;;
7529;SDS011;3806;52.270;10.544;2023-11-18T03:16:24;5.28;;;3.00;;
7529;SDS011;3806;52.270;10.544;2023-11-18T03:18:49;4.82;;;2.97;;
7529;SDS011;3806;52.270;10.544;2023-11-18T03:21:16;7.78;;;4.03;;
7529;SDS011;3806;52.270;10.544;2023-11-18T03:23:42;6.50;;;3.22;;
7529;SDS011;3806;52.270;10.544;2023-11-18T03:26:08;6.88;;;3.50;;
7529;SDS011;3806;52.270;10.544;2023-11-18T03:28:35;5.72;;;4.07;;
7529;SDS011;3806;52.270;10.544;2023-11-18T03:31:02;6.43;;;3.60;;
7529;SDS011;3806;52.270;10.544;2023-11-18T03:33:29;5.35;;;3.58;;
7529;SDS011;3806;52.270;10.544;2023-11-18T03:35:55;5.55;;;3.35;;
7529;SDS011;3806;52.270;10.544;2023-11-18T03:38:21;5.53;;;3.35;;
7529;SDS011;3806;52.270;10.544;2023-11-18T03:40:46;6.57;;;4.38;;
7529;SDS011;3806;52.270;10.544;2023-11-18T03:43:12;5.65;;;3.25;;
7529;SDS011;3806;52.270;10.544;2023-11-18T03:45:39;8.63;;;4.20;;
7529;SDS011;3806;52.270;10.544;2023-11-18T03:48:05;8.00;;;4.32;;
7529;SDS011;3806;52.270;10.544;2023-11-18T03:50:31;6.65;;;4.13;;
7529;SDS011;3806;52.270;10.544;2023-11-18T03:52:57;7.20;;;3.90;;
7529;SDS011;3806;52.270;10.544;2023-11-18T03:55:23;8.80;;;3.80;;
7529;SDS011;3806;52.270;10.544;2023-11-18T03:57:50;7.30;;;4.00;;
7529;SDS011;3806;52.270;10.544;2023-11-18T04:00:15;6.72;;;4.40;;
7529;SDS011;3806;52.270;10.544;2023-11-18T04:02:41;7.35;;;4.40;;
7529;SDS011;3806;52.270;10.544;2023-11-18T04:05:07;9.38;;;4.22;;
7529;SDS011;3806;52.270;10.544;2023-11-18T04:07:33;5.97;;;3.83;;
7529;SDS011;3806;52.270;10.544;2023-11-18T04:09:59;8.07;;;3.97;;
7529;SDS011;3806;52.270;10.544;2023-11-18T04:12:30;9.15;;;4.88;;
7529;SDS011;3806;52.270;10.544;2023-11-18T04:14:56;7.05;;;4.10;;
7529;SDS011;3806;52.270;10.544;2023-11-18T04:17:22;9.63;;;4.80;;
7529;SDS011;3806;52.270;10.544;2023-11-18T04:19:47;5.30;;;3.72;;
7529;SDS011;3806;52.270;10.544;2023-11-18T04:22:13;5.35;;;3.92;;
7529;SDS011;3806;52.270;10.544;2023-11-18T04:24:38;6.82;;;3.55;;
7529;SDS011;3806;52.270;10.544;2023-11-18T04:27:04;6.28;;;3.67;;
7529;SDS011;3806;52.270;10.544;2023-11-18T04:29:29;6.78;;;3.95;;
7529;SDS011;3806;52.270;10.544;2023-11-18T04:31:55;5.22;;;3.63;;
7529;SDS011;3806;52.270;10.544;2023-11-18T04:34:21;7.53;;;3.95;;
7529;SDS011;3806;52.270;10.544;2023-11-18T04:36:46;6.50;;;4.00;;
7529;SDS011;3806;52.270;10.544;2023-11-18T04:39:12;5.97;;;3.78;;
7529;SDS011;3806;52.270;10.544;2023-11-18T04:41:37;6.32;;;3.85;;
7529;SDS011;3806;52.270;10.544;2023-11-18T04:44:03;6.15;;;3.58;;
7529;SDS011;3806;52.270;10.544;2023-11-18T04:46:29;9.18;;;3.97;;
7529;SDS011;3806;52.270;10.544;2023-11-18T04:48:54;5.90;;;3.55;;
7529;SDS011;3806;52.270;10.544;2023-11-18T04:51:20;5.88;;;4.10;;
7529;SDS011;3806;52.270;10.544;2023-11-18T04:53:47;7.88;;;3.88;;
7529;SDS011;3806;52.270;10.544;2023-11-18T04:56:13;7.38;;;4.03;;
7529;SDS011;3806;52.270;10.544;2023-11-18T04:58:41;8.38;;;3.80;;
7529;SDS011;3806;52.270;10.544;2023-11-18T05:01:07;8.75;;;4.32;;
7529;SDS011;3806;52.270;10.544;2023-11-18T05:03:34;6.72;;;3.95;;
7529;SDS011;3806;52.270;10.544;2023-11-18T05:06:00;7.45;;;3.55;;
7529;SDS011;3806;52.270;10.544;2023-11-18T05:08:26;5.78;;;3.22;;
7529;SDS011;3806;52.270;10.544;2023-11-18T05:10:51;9.18;;;3.90;;
7529;SDS011;3806;52.270;10.544;2023-11-18T05:13:17;6.20;;;3.80;;
7529;SDS011;3806;52.270;10.544;2023-11-18T05:15:44;5.78;;;3.50;;
7529;SDS011;3806;52.270;10.544;2023-11-18T05:18:10;5.70;;;3.45;;
7529;SDS011;3806;52.270;10.544;2023-11-18T05:20:38;8.93;;;4.18;;
7529;SDS011;3806;52.270;10.544;2023-11-18T05:23:04;6.45;;;3.38;;
7529;SDS011;3806;52.270;10.544;2023-11-18T05:25:30;4.60;;;3.28;;
7529;SDS011;3806;52.270;10.544;2023-11-18T05:27:58;8.95;;;4.80;;
7529;SDS011;3806;52.270;10.544;2023-11-18T05:30:24;5.53;;;3.17;;
7529;SDS011;3806;52.270;10.544;2023-11-18T05:32:50;8.23;;;4.53;;
7529;SDS011;3806;52.270;10.544;2023-11-18T05:35:16;8.55;;;4.53;;
7529;SDS011;3806;52.270;10.544;2023-11-18T05:37:42;5.20;;;3.30;;
7529;SDS011;3806;52.270;10.544;2023-11-18T05:40:08;5.85;;;3.88;;
7529;SDS011;3806;52.270;10.544;2023-11-18T05:42:36;9.90;;;3.80;;
7529;SDS011;3806;52.270;10.544;2023-11-18T05:45:03;5.60;;;3.70;;
7529;SDS011;3806;52.270;10.544;2023-11-18T05:47:29;6.38;;;3.47;;
7529;SDS011;3806;52.270;10.544;2023-11-18T05:49:55;6.80;;;3.38;;
7529;SDS011;3806;52.270;10.544;2023-11-18T05:52:21;6.30;;;3.40;;
7529;SDS011;3806;52.270;10.544;2023-11-18T05:54:47;7.35;;;3.45;;
7529;SDS011;3806;52.270;10.544;2023-11-18T05:57:14;7.85;;;4.47;;
7529;SDS011;3806;52.270;10.544;2023-11-18T05:59:40;7.72;;;3.60;;
7529;SDS011;3806;52.270;10.544;2023-11-18T06:02:05;6.85;;;4.22;;
7529;SDS011;3806;52.270;10.544;2023-11-18T06:04:33;5.80;;;3.90;;
7529;SDS011;3806;52.270;10.544;2023-11-18T06:06:58;6.78;;;3.60;;
7529;SDS011;3806;52.270;10.544;2023-11-18T06:09:24;6.43;;;3.88;;
7529;SDS011;3806;52.270;10.544;2023-11-18T06:11:53;6.05;;;3.75;;
7529;SDS011;3806;52.270;10.544;2023-11-18T06:14:19;7.00;;;3.80;;
7529;SDS011;3806;52.270;10.544;2023-11-18T06:16:46;11.30;;;4.25;;
7529;SDS011;3806;52.270;10.544;2023-11-18T06:19:13;6.05;;;4.00;;
7529;SDS011;3806;52.270;10.544;2023-11-18T06:21:40;7.05;;;4.38;;
7529;SDS011;3806;52.270;10.544;2023-11-18T06:24:05;7.53;;;3.70;;
7529;SDS011;3806;52.270;10.544;2023-11-18T06:26:31;7.60;;;3.85;;
7529;SDS011;3806;52.270;10.544;2023-11-18T06:28:58;7.13;;;3.67;;
7529;SDS011;3806;52.270;10.544;2023-11-18T06:31:24;6.43;;;4.22;;
7529;SDS011;3806;52.270;10.544;2023-11-18T06:33:50;6.72;;;3.58;;
7529;SDS011;3806;52.270;10.544;2023-11-18T06:38:46;6.47;;;5.05;;
7529;SDS011;3806;52.270;10.544;2023-11-18T06:41:14;6.80;;;3.85;;
7529;SDS011;3806;52.270;10.544;2023-11-18T06:43:41;5.32;;;3.80;;
7529;SDS011;3806;52.270;10.544;2023-11-18T06:46:17;5.63;;;3.63;;
7529;SDS011;3806;52.270;10.544;2023-11-18T06:48:45;5.65;;;3.67;;
7529;SDS011;3806;52.270;10.544;2023-11-18T06:51:13;7.32;;;3.95;;
7529;SDS011;3806;52.270;10.544;2023-11-18T06:53:40;7.78;;;4.13;;
7529;SDS011;3806;52.270;10.544;2023-11-18T06:56:06;5.95;;;3.97;;
7529;SDS011;3806;52.270;10.544;2023-11-18T06:58:31;7.32;;;4.47;;
7529;SDS011;3806;52.270;10.544;2023-11-18T07:00:57;8.25;;;4.18;;
7529;SDS011;3806;52.270;10.544;2023-11-18T07:03:23;8.10;;;4.35;;
7529;SDS011;3806;52.270;10.544;2023-11-18T07:05:48;6.40;;;3.92;;
7529;SDS011;3806;52.270;10.544;2023-11-18T07:08:14;7.88;;;4.93;;
7529;SDS011;3806;52.270;10.544;2023-11-18T07:10:40;9.40;;;4.60;;
7529;SDS011;3806;52.270;10.544;2023-11-18T07:13:06;6.32;;;4.05;;
7529;SDS011;3806;52.270;10.544;2023-11-18T07:15:33;7.60;;;4.25;;
7529;SDS011;3806;52.270;10.544;2023-11-18T07:18:00;6.15;;;3.72;;
7529;SDS011;3806;52.270;10.544;2023-11-18T07:20:26;8.30;;;4.30;;
7529;SDS011;3806;52.270;10.544;2023-11-18T07:22:52;7.30;;;3.60;;
7529;SDS011;3806;52.270;10.544;2023-11-18T07:25:17;7.45;;;3.58;;
7529;SDS011;3806;52.270;10.544;2023-11-18T07:27:43;5.20;;;3.03;;
7529;SDS011;3806;52.270;10.544;2023-11-18T07:30:10;6.45;;;3.92;;
7529;SDS011;3806;52.270;10.544;2023-11-18T07:32:36;8.15;;;3.70;;
7529;SDS011;3806;52.270;10.544;2023-11-18T07:35:01;7.28;;;4.53;;
7529;SDS011;3806;52.270;10.544;2023-11-18T07:37:27;5.80;;;3.42;;
7529;SDS011;3806;52.270;10.544;2023-11-18T07:39:53;6.18;;;4.03;;
7529;SDS011;3806;52.270;10.544;2023-11-18T07:42:20;8.07;;;4.40;;
7529;SDS011;3806;52.270;10.544;2023-11-18T07:44:46;7.93;;;4.00;;
7529;SDS011;3806;52.270;10.544;2023-11-18T07:47:12;6.43;;;4.18;;
7529;SDS011;3806;52.270;10.544;2023-11-18T07:49:41;6.85;;;4.60;;
7529;SDS011;3806;52.270;10.544;2023-11-18T07:52:06;11.20;;;4.60;;
7529;SDS011;3806;52.270;10.544;2023-11-18T07:54:32;9.38;;;4.53;;
7529;SDS011;3806;52.270;10.544;2023-11-18T07:56:58;7.43;;;4.72;;
7529;SDS011;3806;52.270;10.544;2023-11-18T07:59:24;8.07;;;5.15;;
7529;SDS011;3806;52.270;10.544;2023-11-18T08:01:49;11.27;;;5.88;;
7529;SDS011;3806;52.270;10.544;2023-11-18T08:04:15;9.02;;;5.22;;
7529;SDS011;3806;52.270;10.544;2023-11-18T08:06:42;9.98;;;5.53;;
7529;SDS011;3806;52.270;10.544;2023-11-18T08:09:08;13.43;;;5.80;;
7529;SDS011;3806;52.270;10.544;2023-11-18T08:11:38;13.52;;;6.25;;
7529;SDS011;3806;52.270;10.544;2023-11-18T08:14:06;9.95;;;5.80;;
7529;SDS011;3806;52.270;10.544;2023-11-18T08:16:32;9.30;;;5.38;;
7529;SDS011;3806;52.270;10.544;2023-11-18T08:18:58;10.60;;;6.22;;
7529;SDS011;3806;52.270;10.544;2023-11-18T08:21:24;9.80;;;6.38;;
7529;SDS011;3806;52.270;10.544;2023-11-18T08:23:50;13.75;;;6.93;;
7529;SDS011;3806;52.270;10.544;2023-11-18T08:26:15;11.82;;;7.22;;
7529;SDS011;3806;52.270;10.544;2023-11-18T08:28:41;13.93;;;7.45;;
7529;SDS011;3806;52.270;10.544;2023-11-18T08:31:06;16.60;;;9.23;;
7529;SDS011;3806;52.270;10.544;2023-11-18T08:33:32;13.63;;;7.78;;
7529;SDS011;3806;52.270;10.544;2023-11-18T08:35:58;17.83;;;8.63;;
7529;SDS011;3806;52.270;10.544;2023-11-18T08:38:26;13.93;;;7.88;;
7529;SDS011;3806;52.270;10.544;2023-11-18T08:40:53;16.63;;;8.27;;
7529;SDS011;3806;52.270;10.544;2023-11-18T08:43:20;21.20;;;8.77;;
7529;SDS011;3806;52.270;10.544;2023-11-18T08:45:46;18.30;;;9.05;;
7529;SDS011;3806;52.270;10.544;2023-11-18T08:48:12;17.08;;;9.43;;
7529;SDS011;3806;52.270;10.544;2023-11-18T08:50:38;18.67;;;10.40;;
7529;SDS011;3806;52.270;10.544;2023-11-18T08:53:05;16.88;;;9.32;;
7529;SDS011;3806;52.270;10.544;2023-11-18T08:55:31;17.85;;;9.95;;
7529;SDS011;3806;52.270;10.544;2023-11-18T08:58:16;18.58;;;9.73;;
7529;SDS011;3806;52.270;10.544;2023-11-18T09:00:47;17.80;;;9.68;;
7529;SDS011;3806;52.270;10.544;2023-11-18T09:03:17;19.13;;;10.38;;
7529;SDS011;3806;52.270;10.544;2023-11-18T09:05:57;21.77;;;11.73;;
7529;SDS011;3806;52.270;10.544;2023-11-18T09:08:30;21.67;;;10.70;;
7529;SDS011;3806;52.270;10.544;2023-11-18T09:11:00;21.13;;;11.85;;
7529;SDS011;3806;52.270;10.544;2023-11-18T09:13:30;19.88;;;10.77;;
7529;SDS011;3806;52.270;10.544;2023-11-18T09:16:03;23.02;;;12.68;;
7529;SDS011;3806;52.270;10.544;2023-11-18T09:18:35;23.02;;;11.27;;
7529;SDS011;3806;52.270;10.544;2023-11-18T09:21:04;19.90;;;10.85;;
7529;SDS011;3806;52.270;10.544;2023-11-18T09:23:32;19.42;;;11.30;;
7529;SDS011;3806;52.270;10.544;2023-11-18T09:26:03;24.48;;;11.93;;
7529;SDS011;3806;52.270;10.544;2023-11-18T09:28:32;20.48;;;11.40;;
7529;SDS011;3806;52.270;10.544;2023-11-18T09:31:00;19.23;;;11.30;;
7529;SDS011;3806;52.270;10.544;2023-11-18T09:33:29;25.73;;;12.88;;
7529;SDS011;3806;52.270;10.544;2023-11-18T09:36:03;20.23;;;10.95;;
7529;SDS011;3806;52.270;10.544;2023-11-18T09:38:33;21.63;;;12.88;;
7529;SDS011;3806;52.270;10.544;2023-11-18T09:41:05;25.02;;;11.25;;
7529;SDS011;3806;52.270;10.544;2023-11-18T09:43:32;22.35;;;12.30;;
7529;SDS011;3806;52.270;10.544;2023-11-18T09:46:07;23.38;;;11.77;;
7529;SDS011;3806;52.270;10.544;2023-11-18T09:48:47;22.52;;;11.25;;
7529;SDS011;3806;52.270;10.544;2023-11-18T09:51:24;22.33;;;11.60;;
7529;SDS011;3806;52.270;10.544;2023-11-18T09:53:54;20.35;;;11.05;;
7529;SDS011;3806;52.270;10.544;2023-11-18T09:59:18;22.25;;;11.15;;
7529;SDS011;3806;52.270;10.544;2023-11-18T10:01:53;22.85;;;11.38;;
7529;SDS011;3806;52.270;10.544;2023-11-18T10:04:23;20.20;;;11.02;;
7529;SDS011;3806;52.270;10.544;2023-11-18T10:06:52;22.95;;;12.40;;
7529;SDS011;3806;52.270;10.544;2023-11-18T10:09:19;25.27;;;13.15;;
7529;SDS011;3806;52.270;10.544;2023-11-18T10:11:53;22.58;;;11.23;;
7529;SDS011;3806;52.270;10.544;2023-11-18T10:14:25;23.38;;;11.82;;
7529;SDS011;3806;52.270;10.544;2023-11-18T10:16:54;19.30;;;11.30;;
7529;SDS011;3806;52.270;10.544;2023-11-18T10:19:20;21.00;;;11.82;;
7529;SDS011;3806;52.270;10.544;2023-11-18T10:21:46;19.73;;;10.73;;
7529;SDS011;3806;52.270;10.544;2023-11-18T10:24:15;21.10;;;11.73;;
7529;SDS011;3806;52.270;10.544;2023-11-18T10:26:44;23.38;;;11.90;;
7529;SDS011;3806;52.270;10.544;2023-11-18T10:29:25;20.75;;;10.95;;
7529;SDS011;3806;52.270;10.544;2023-11-18T10:32:06;22.23;;;10.93;;
7529;SDS011;3806;52.270;10.544;2023-11-18T10:34:41;21.75;;;11.50;;
7529;SDS011;3806;52.270;10.544;2023-11-18T10:37:08;19.92;;;11.40;;
7529;SDS011;3806;52.270;10.544;2023-11-18T10:39:35;19.70;;;10.90;;
7529;SDS011;3806;52.270;10.544;2023-11-18T10:42:02;15.07;;;8.90;;
7529;SDS011;3806;52.270;10.544;2023-11-18T10:44:28;16.05;;;8.90;;
7529;SDS011;3806;52.270;10.544;2023-11-18T10:46:57;18.00;;;10.15;;
7529;SDS011;3806;52.270;10.544;2023-11-18T10:49:24;19.60;;;9.98;;
7529;SDS011;3806;52.270;10.544;2023-11-18T10:51:51;13.80;;;8.55;;
7529;SDS011;3806;52.270;10.544;2023-11-18T10:54:17;20.08;;;9.75;;
7529;SDS011;3806;52.270;10.544;2023-11-18T10:56:50;19.45;;;10.57;;
7529;SDS011;3806;52.270;10.544;2023-11-18T10:59:16;19.13;;;10.25;;
7529;SDS011;3806;52.270;10.544;2023-11-18T11:01:43;21.50;;;10.25;;
7529;SDS011;3806;52.270;10.544;2023-11-18T11:04:12;17.38;;;10.57;;
7529;SDS011;3806;52.270;10.544;2023-11-18T11:06:42;15.23;;;8.45;;
7529;SDS011;3806;52.270;10.544;2023-11-18T11:09:18;15.30;;;8.20;;
7529;SDS011;3806;52.270;10.544;2023-11-18T11:11:53;17.77;;;7.63;;
7529;SDS011;3806;52.270;10.544;2023-11-18T11:14:22;18.30;;;8.52;;
7529;SDS011;3806;52.270;10.544;2023-11-18T11:17:00;15.30;;;7.72;;
7529;SDS011;3806;52.270;10.544;2023-11-18T11:19:41;14.25;;;7.38;;
7529;SDS011;3806;52.270;10.544;2023-11-18T11:22:21;15.80;;;8.05;;
7529;SDS011;3806;52.270;10.544;2023-11-18T11:25:02;16.05;;;7.95;;
7529;SDS011;3806;52.270;10.544;2023-11-18T11:27:50;18.08;;;9.00;;
7529;SDS011;3806;52.270;10.544;2023-11-18T11:30:33;13.80;;;8.13;;
7529;SDS011;3806;52.270;10.544;2023-11-18T11:33:18;15.13;;;8.00;;
7529;SDS011;3806;52.270;10.544;2023-11-18T11:35:57;16.52;;;9.65;;
7529;SDS011;3806;52.270;10.544;2023-11-18T11:38:27;16.35;;;8.93;;
7529;SDS011;3806;52.270;10.544;2023-11-18T11:40:54;16.33;;;9.65;;
7529;SDS011;3806;52.270;10.544;2023-11-18T11:43:20;18.20;;;9.27;;
7529;SDS011;3806;52.270;10.544;2023-11-18T11:45:52;18.38;;;9.32;;
7529;SDS011;3806;52.270;10.544;2023-11-18T11:48:20;17.13;;;10.60;;
7529;SDS011;3806;52.270;10.544;2023-11-18T11:51:03;19.23;;;9.52;;
7529;SDS011;3806;52.270;10.544;2023-11-18T11:56:47;18.70;;;9.35;;
7529;SDS011;3806;52.270;10.544;2023-11-18T12:02:12;18.63;;;10.32;;
7529;SDS011;3806;52.270;10.544;2023-11-18T12:04:43;20.85;;;11.43;;
7529;SDS011;3806;52.270;10.544;2023-11-18T12:07:09;18.25;;;10.57;;
7529;SDS011;3806;52.270;10.544;2023-11-18T12:09:38;17.45;;;9.65;;
7529;SDS011;3806;52.270;10.544;2023-11-18T12:12:06;17.58;;;10.13;;
7529;SDS011;3806;52.270;10.544;2023-11-18T12:14:52;17.75;;;9.65;;
7529;SDS011;3806;52.270;10.544;2023-11-18T12:17:22;19.45;;;10.07;;
7529;SDS011;3806;52.270;10.544;2023-11-18T12:19:49;17.50;;;9.88;;
7529;SDS011;3806;52.270;10.544;2023-11-18T12:22:23;18.20;;;9.77;;
7529;SDS011;3806;52.270;10.544;2023-11-18T12:27:40;19.02;;;10.18;;
7529;SDS011;3806;52.270;10.544;2023-11-18T12:35:36;18.65;;;9.45;;
7529;SDS011;3806;52.270;10.544;2023-11-18T12:41:00;16.40;;;9.48;;
7529;SDS011;3806;52.270;10.544;2023-11-18T12:46:32;14.48;;;9.13;;
7529;SDS011;3806;52.270;10.544;2023-11-18T12:49:22;18.15;;;8.95;;
7529;SDS011;3806;52.270;10.544;2023-11-18T12:51:49;14.50;;;8.65;;
7529;SDS011;3806;52.270;10.544;2023-11-18T12:54:17;15.60;;;8.93;;
7529;SDS011;3806;52.270;10.544;2023-11-18T12:56:44;17.73;;;8.98;;
7529;SDS011;3806;52.270;10.544;2023-11-18T12:59:14;12.52;;;7.30;;
7529;SDS011;3806;52.270;10.544;2023-11-18T13:01:52;14.65;;;8.60;;
7529;SDS011;3806;52.270;10.544;2023-11-18T13:04:24;12.07;;;7.10;;
7529;SDS011;3806;52.270;10.544;2023-11-18T13:06:50;13.68;;;7.22;;
7529;SDS011;3806;52.270;10.544;2023-11-18T13:09:17;12.60;;;6.85;;
7529;SDS011;3806;52.270;10.544;2023-11-18T13:11:54;11.02;;;6.05;;
7529;SDS011;3806;52.270;10.544;2023-11-18T13:14:26;10.23;;;5.72;;
7529;SDS011;3806;52.270;10.544;2023-11-18T13:16:53;9.48;;;5.47;;
7529;SDS011;3806;52.270;10.544;2023-11-18T13:19:25;14.50;;;6.50;;
7529;SDS011;3806;52.270;10.544;2023-11-18T13:21:56;10.52;;;5.32;;
7529;SDS011;3806;52.270;10.544;2023-11-18T13:24:37;8.10;;;5.28;;
7529;SDS011;3806;52.270;10.544;2023-11-18T13:27:10;8.02;;;4.57;;
7529;SDS011;3806;52.270;10.544;2023-11-18T13:29:39;8.07;;;4.82;;
7529;SDS011;3806;52.270;10.544;2023-11-18T13:32:10;7.88;;;4.65;;
7529;SDS011;3806;52.270;10.544;2023-11-18T13:34:37;7.18;;;3.95;;
7529;SDS011;3806;52.270;10.544;2023-11-18T13:37:06;6.80;;;4.10;;
7529;SDS011;3806;52.270;10.544;2023-11-18T13:39:33;11.13;;;4.70;;
7529;SDS011;3806;52.270;10.544;2023-11-18T13:42:17;8.18;;;5.15;;
7529;SDS011;3806;52.270;10.544;2023-11-18T13:44:44;7.93;;;4.47;;
7529;SDS011;3806;52.270;10.544;2023-11-18T13:47:11;8.30;;;4.50;;
7529;SDS011;3806;52.270;10.544;2023-11-18T13:49:37;8.35;;;4.95;;
7529;SDS011;3806;52.270;10.544;2023-11-18T13:52:06;9.70;;;4.80;;
7529;SDS011;3806;52.270;10.544;2023-11-18T13:54:35;7.07;;;4.28;;
7529;SDS011;3806;52.270;10.544;2023-11-18T13:57:02;7.30;;;4.07;;
7529;SDS011;3806;52.270;10.544;2023-11-18T13:59:28;6.50;;;3.88;;
7529;SDS011;3806;52.270;10.544;2023-11-18T14:01:55;7.93;;;4.50;;
7529;SDS011;3806;52.270;10.544;2023-11-18T14:04:27;9.20;;;4.53;;
7529;SDS011;3806;52.270;10.544;2023-11-18T14:06:57;6.55;;;4.18;;
7529;SDS011;3806;52.270;10.544;2023-11-18T14:09:24;5.07;;;4.22;;
7529;SDS011;3806;52.270;10.544;2023-11-18T14:11:53;7.97;;;4.45;;
7529;SDS011;3806;52.270;10.544;2023-11-18T14:14:24;8.30;;;4.13;;
7529;SDS011;3806;52.270;10.544;2023-11-18T14:16:50;11.38;;;4.85;;
7529;SDS011;3806;52.270;10.544;2023-11-18T14:19:18;9.48;;;3.80;;
7529;SDS011;3806;52.270;10.544;2023-11-18T14:21:44;9.93;;;4.53;;
7529;SDS011;3806;52.270;10.544;2023-11-18T14:24:10;6.38;;;3.58;;
7529;SDS011;3806;52.270;10.544;2023-11-18T14:26:36;6.80;;;3.75;;
7529;SDS011;3806;52.270;10.544;2023-11-18T14:29:04;7.05;;;3.58;;
7529;SDS011;3806;52.270;10.544;2023-11-18T14:31:31;6.15;;;3.38;;
7529;SDS011;3806;52.270;10.544;2023-11-18T14:33:56;6.88;;;3.53;;
7529;SDS011;3806;52.270;10.544;2023-11-18T14:36:24;6.53;;;3.30;;
7529;SDS011;3806;52.270;10.544;2023-11-18T14:38:53;7.55;;;3.78;;
7529;SDS011;3806;52.270;10.544;2023-11-18T14:41:19;8.45;;;4.00;;
7529;SDS011;3806;52.270;10.544;2023-11-18T14:43:49;6.18;;;3.58;;
7529;SDS011;3806;52.270;10.544;2023-11-18T14:46:15;6.43;;;3.40;;
7529;SDS011;3806;52.270;10.544;2023-11-18T14:48:40;4.90;;;3.35;;
7529;SDS011;3806;52.270;10.544;2023-11-18T14:51:06;8.45;;;4.40;;
7529;SDS011;3806;52.270;10.544;2023-11-18T14:53:32;9.05;;;4.00;;
7529;SDS011;3806;52.270;10.544;2023-11-18T14:55:59;7.50;;;3.47;;
7529;SDS011;3806;52.270;10.544;2023-11-18T14:58:25;5.88;;;3.22;;
7529;SDS011;3806;52.270;10.544;2023-11-18T15:00:51;8.15;;;3.90;;
7529;SDS011;3806;52.270;10.544;2023-11-18T15:03:16;6.50;;;3.42;;
7529;SDS011;3806;52.270;10.544;2023-11-18T15:05:42;6.30;;;3.80;;
7529;SDS011;3806;52.270;10.544;2023-11-18T15:08:09;6.95;;;3.63;;
7529;SDS011;3806;52.270;10.544;2023-11-18T15:10:34;8.48;;;4.10;;
7529;SDS011;3806;52.270;10.544;2023-11-18T15:13:02;6.55;;;3.83;;
7529;SDS011;3806;52.270;10.544;2023-11-18T15:15:28;6.82;;;3.40;;
7529;SDS011;3806;52.270;10.544;2023-11-18T15:18:02;5.88;;;3.72;;
7529;SDS011;3806;52.270;10.544;2023-11-18T15:20:33;5.93;;;3.25;;
7529;SDS011;3806;52.270;10.544;2023-11-18T15:23:00;7.38;;;4.10;;
7529;SDS011;3806;52.270;10.544;2023-11-18T15:25:26;7.88;;;4.38;;
7529;SDS011;3806;52.270;10.544;2023-11-18T15:27:52;6.03;;;3.90;;